Time;durP1;ratioP1;P1;durP2;ratioP2;P2;SDS_P1;SDS_P2;PMS_P1;PMS_P2;Temp;Humidity;BMP_temperature;BMP_pressure;BME280_temperature;BME280_humidity;BME280_pressure;Samples;Min_cycle;Max_cycle;Signal;HPM_P1;HPM_P2
2022/07/19 00:01:50;;;;;;;5.07;1.25;;;;;;;;;;5045188;28;20037;-80
2022/07/19 00:04:36;;;;;;;3.03;1.58;;;;;;;;;;5046202;28;20049;-81
2022/07/19 00:07:21;;;;;;;3.10;1.30;;;;;;;;;;5046107;28;20041;-81
2022/07/19 00:10:08;;;;;;;3.15;1.45;;;;;;;;;;5043623;28;20057;-81
2022/07/19 00:12:54;;;;;;;2.53;1.45;;;;;;;;;;5045147;28;20121;-81
2022/07/19 00:15:40;;;;;;;3.20;1.50;;;;;;;;;;5031020;28;20036;-81
2022/07/19 00:18:25;;;;;;;2.85;1.40;;;;;;;;;;5045312;28;20049;-81
2022/07/19 00:21:11;;;;;;;7.97;1.52;;;;;;;;;;5030816;28;20049;-81
2022/07/19 00:23:57;;;;;;;2.92;1.35;;;;;;;;;;5044223;28;20041;-81
2022/07/19 00:26:43;;;;;;;2.08;1.30;;;;;;;;;;5032171;28;20048;-81
2022/07/19 00:29:28;;;;;;;3.35;1.15;;;;;;;;;;5046052;28;20045;-81
2022/07/19 00:32:14;;;;;;;2.88;1.40;;;;;;;;;;5043348;28;20045;-81
2022/07/19 00:35:00;;;;;;;2.20;1.10;;;;;;;;;;5032018;28;20527;-81
2022/07/19 00:37:45;;;;;;;3.10;1.45;;;;;;;;;;5031701;28;20045;-81
2022/07/19 00:40:31;;;;;;;3.08;1.55;;;;;;;;;;5042660;28;20033;-81
2022/07/19 00:43:17;;;;;;;2.78;1.30;;;;;;;;;;5029125;28;20042;-81
2022/07/19 00:46:03;;;;;;;3.67;1.27;;;;;;;;;;5029176;28;20042;-81
2022/07/19 00:48:49;;;;;;;2.78;1.33;;;;;;;;;;5029921;28;20124;-81
2022/07/19 00:51:35;;;;;;;2.70;1.17;;;;;;;;;;5030566;28;20029;-80
2022/07/19 00:54:21;;;;;;;2.72;1.42;;;;;;;;;;5017375;28;20501;-81
2022/07/19 00:57:07;;;;;;;2.55;1.20;;;;;;;;;;5029299;28;20037;-81
2022/07/19 00:59:54;;;;;;;2.53;1.27;;;;;;;;;;5031133;28;20037;-81
2022/07/19 01:02:40;;;;;;;2.40;1.20;;;;;;;;;;5043887;28;20034;-81
2022/07/19 01:05:25;;;;;;;2.42;1.20;;;;;;;;;;5045343;28;20052;-81
2022/07/19 01:08:11;;;;;;;2.35;1.20;;;;;;;;;;5044282;28;20046;-81
2022/07/19 01:10:57;;;;;;;2.33;0.93;;;;;;;;;;5045889;28;20050;-81
2022/07/19 01:13:43;;;;;;;2.42;1.20;;;;;;;;;;5030107;28;20033;-81
2022/07/19 01:16:29;;;;;;;2.40;1.20;;;;;;;;;;5032512;28;20041;-81
2022/07/19 01:19:15;;;;;;;2.35;1.10;;;;;;;;;;5035311;28;20041;-81
2022/07/19 01:22:01;;;;;;;2.58;1.20;;;;;;;;;;5049505;28;20045;-81
2022/07/19 01:24:46;;;;;;;4.38;1.10;;;;;;;;;;5047995;28;20045;-81
2022/07/19 01:27:40;;;;;;;2.40;1.35;;;;;;;;;;5049097;28;20107;-81
2022/07/19 01:30:26;;;;;;;2.85;1.30;;;;;;;;;;5033526;28;20049;-81
2022/07/19 01:33:12;;;;;;;2.35;1.20;;;;;;;;;;5034400;28;20087;-82
2022/07/19 01:35:58;;;;;;;2.35;1.08;;;;;;;;;;5049092;28;20041;-81
2022/07/19 01:38:43;;;;;;;2.92;1.50;;;;;;;;;;5048032;28;20041;-81
2022/07/19 01:41:29;;;;;;;2.35;0.93;;;;;;;;;;5034688;28;20034;-81
2022/07/19 01:44:15;;;;;;;3.92;2.20;;;;;;;;;;5034793;28;20037;-81
2022/07/19 01:47:01;;;;;;;2.20;1.08;;;;;;;;;;5035002;28;20084;-81
2022/07/19 01:49:47;;;;;;;2.30;1.17;;;;;;;;;;5047597;28;20495;-81
2022/07/19 01:52:33;;;;;;;2.75;1.23;;;;;;;;;;5046887;28;20447;-81
2022/07/19 01:55:19;;;;;;;2.10;1.30;;;;;;;;;;5048983;28;20116;-81
2022/07/19 01:58:04;;;;;;;2.45;1.10;;;;;;;;;;5033221;28;20041;-81
2022/07/19 02:00:50;;;;;;;2.88;1.30;;;;;;;;;;5048311;28;20050;-81
2022/07/19 02:03:36;;;;;;;2.65;1.00;;;;;;;;;;5048268;28;20060;-81
2022/07/19 02:06:22;;;;;;;2.35;1.05;;;;;;;;;;5049042;28;20044;-81
2022/07/19 02:09:07;;;;;;;3.72;1.55;;;;;;;;;;5032929;28;20037;-81
2022/07/19 02:11:53;;;;;;;2.22;1.20;;;;;;;;;;5046340;28;20404;-81
2022/07/19 02:14:39;;;;;;;2.78;1.35;;;;;;;;;;5048963;28;20076;-81
2022/07/19 02:17:25;;;;;;;4.88;1.92;;;;;;;;;;5046820;28;20072;-81
2022/07/19 02:20:12;;;;;;;1.77;1.23;;;;;;;;;;5033758;28;20045;-81
2022/07/19 02:22:58;;;;;;;3.15;1.17;;;;;;;;;;5032964;28;20045;-81
2022/07/19 02:25:44;;;;;;;1.88;1.02;;;;;;;;;;5048115;28;20508;-81
2022/07/19 02:28:29;;;;;;;2.67;0.80;;;;;;;;;;5029839;28;20404;-81
2022/07/19 02:31:15;;;;;;;1.83;1.00;;;;;;;;;;5048203;28;20052;-81
2022/07/19 02:34:01;;;;;;;2.13;1.10;;;;;;;;;;5047697;28;20049;-81
2022/07/19 02:36:47;;;;;;;2.67;0.98;;;;;;;;;;5046608;28;20038;-81
2022/07/19 02:39:32;;;;;;;2.13;1.33;;;;;;;;;;5032612;28;20046;-81
2022/07/19 02:42:18;;;;;;;2.15;1.10;;;;;;;;;;5047160;28;20248;-81
2022/07/19 02:45:04;;;;;;;1.83;1.10;;;;;;;;;;5046711;28;20103;-81
2022/07/19 02:47:50;;;;;;;1.77;1.25;;;;;;;;;;5018733;28;20045;-81
2022/07/19 02:50:36;;;;;;;2.50;1.08;;;;;;;;;;5047602;28;20095;-81
2022/07/19 02:53:21;;;;;;;3.63;1.48;;;;;;;;;;5047520;28;20053;-81
2022/07/19 02:56:07;;;;;;;2.53;1.20;;;;;;;;;;5031622;28;20042;-80
2022/07/19 02:58:54;;;;;;;1.65;0.82;;;;;;;;;;5033703;28;20033;-81
2022/07/19 03:01:39;;;;;;;2.33;1.20;;;;;;;;;;5032785;28;20049;-81
2022/07/19 03:04:25;;;;;;;2.83;1.02;;;;;;;;;;5030393;28;20057;-81
2022/07/19 03:07:11;;;;;;;6.07;0.98;;;;;;;;;;5031129;28;20088;-81
2022/07/19 03:09:57;;;;;;;2.22;1.20;;;;;;;;;;5033131;28;20053;-81
2022/07/19 03:12:43;;;;;;;2.25;1.10;;;;;;;;;;5033183;28;20053;-81
2022/07/19 03:15:28;;;;;;;2.40;0.95;;;;;;;;;;5045911;28;20049;-81
2022/07/19 03:18:14;;;;;;;3.17;1.20;;;;;;;;;;5047430;28;20083;-80
2022/07/19 03:21:00;;;;;;;2.45;1.10;;;;;;;;;;5032988;28;20038;-81
2022/07/19 03:23:46;;;;;;;2.50;0.90;;;;;;;;;;5044704;28;20041;-81
2022/07/19 03:26:32;;;;;;;2.47;0.90;;;;;;;;;;5031568;28;20415;-80
2022/07/19 03:29:17;;;;;;;2.65;0.90;;;;;;;;;;5031785;28;20116;-81
2022/07/19 03:32:03;;;;;;;3.13;1.10;;;;;;;;;;5033105;28;20040;-81
2022/07/19 03:34:49;;;;;;;2.30;1.00;;;;;;;;;;5046369;28;20419;-81
2022/07/19 03:37:35;;;;;;;3.20;1.05;;;;;;;;;;5031647;28;20056;-81
2022/07/19 03:40:21;;;;;;;2.53;0.82;;;;;;;;;;5046420;28;20045;-80
2022/07/19 03:43:06;;;;;;;3.10;1.20;;;;;;;;;;5032241;28;20042;-81
2022/07/19 03:45:52;;;;;;;1.50;0.90;;;;;;;;;;5031842;28;20128;-81
2022/07/19 03:48:38;;;;;;;1.52;0.80;;;;;;;;;;5046384;28;20440;-81
2022/07/19 03:51:24;;;;;;;2.92;1.10;;;;;;;;;;5032723;28;20403;-81
2022/07/19 03:54:09;;;;;;;2.05;0.93;;;;;;;;;;5046041;28;20041;-81
2022/07/19 03:56:55;;;;;;;2.42;1.25;;;;;;;;;;5044258;28;20037;-81
2022/07/19 03:59:41;;;;;;;2.33;1.00;;;;;;;;;;5044182;28;20037;-81
2022/07/19 04:02:26;;;;;;;1.50;0.98;;;;;;;;;;5045753;28;20060;-81
2022/07/19 04:05:12;;;;;;;2.25;1.17;;;;;;;;;;5046292;28;20056;-81
2022/07/19 04:07:58;;;;;;;2.25;1.02;;;;;;;;;;5046106;28;20045;-81
2022/07/19 04:10:43;;;;;;;2.05;1.10;;;;;;;;;;5045803;28;20068;-81
2022/07/19 04:13:29;;;;;;;2.10;0.85;;;;;;;;;;5044368;28;20040;-81
2022/07/19 04:16:15;;;;;;;2.67;1.20;;;;;;;;;;5045679;28;20026;-81
2022/07/19 04:19:01;;;;;;;6.95;1.38;;;;;;;;;;5030691;28;20037;-81
2022/07/19 04:21:46;;;;;;;2.58;1.10;;;;;;;;;;5032048;28;20087;-81
2022/07/19 04:24:32;;;;;;;3.03;1.40;;;;;;;;;;5043932;28;20096;-81
2022/07/19 04:27:18;;;;;;;1.77;0.93;;;;;;;;;;5029446;28;20059;-81
2022/07/19 04:30:04;;;;;;;2.42;1.25;;;;;;;;;;5044496;28;20089;-81
2022/07/19 04:32:50;;;;;;;1.70;0.88;;;;;;;;;;5044415;28;20091;-81
2022/07/19 04:35:35;;;;;;;3.03;0.88;;;;;;;;;;5031796;28;20048;-81
2022/07/19 04:38:21;;;;;;;1.70;0.90;;;;;;;;;;5029393;28;20045;-81
2022/07/19 04:41:07;;;;;;;1.40;0.80;;;;;;;;;;5043292;28;20117;-81
2022/07/19 04:43:53;;;;;;;3.00;1.13;;;;;;;;;;5044442;28;20063;-80
2022/07/19 04:46:39;;;;;;;2.78;1.48;;;;;;;;;;5030680;28;20040;-81
2022/07/19 04:49:25;;;;;;;2.45;1.10;;;;;;;;;;5030471;28;20041;-81
2022/07/19 04:52:10;;;;;;;3.25;1.13;;;;;;;;;;5029124;28;20635;-81
2022/07/19 04:54:56;;;;;;;2.22;0.90;;;;;;;;;;5030300;28;20087;-81
2022/07/19 04:57:42;;;;;;;3.70;1.23;;;;;;;;;;5031707;28;20443;-81
2022/07/19 05:00:27;;;;;;;2.25;1.25;;;;;;;;;;5030345;28;20046;-81
2022/07/19 05:03:13;;;;;;;1.33;0.75;;;;;;;;;;5045452;28;20427;-81
2022/07/19 05:05:59;;;;;;;4.68;1.17;;;;;;;;;;5045516;28;20037;-81
2022/07/19 05:08:45;;;;;;;2.72;0.80;;;;;;;;;;5030438;28;20041;-81
2022/07/19 05:11:30;;;;;;;2.03;1.00;;;;;;;;;;5045212;28;20555;-81
2022/07/19 05:14:16;;;;;;;1.60;0.80;;;;;;;;;;5029837;28;20059;-80
2022/07/19 05:17:02;;;;;;;3.40;0.93;;;;;;;;;;5031473;28;20049;-81
2022/07/19 05:19:48;;;;;;;2.03;1.00;;;;;;;;;;5044159;28;20060;-81
2022/07/19 05:22:34;;;;;;;1.30;0.73;;;;;;;;;;5043877;28;20052;-81
2022/07/19 05:25:19;;;;;;;2.78;0.90;;;;;;;;;;5031361;28;20049;-81
2022/07/19 05:28:05;;;;;;;2.08;1.00;;;;;;;;;;5045262;28;20095;-81
2022/07/19 05:30:51;;;;;;;1.85;1.00;;;;;;;;;;5045036;28;20102;-81
2022/07/19 05:33:37;;;;;;;3.83;1.33;;;;;;;;;;5045183;28;20108;-81
2022/07/19 05:36:23;;;;;;;2.40;0.80;;;;;;;;;;5029860;28;20049;-81
2022/07/19 05:39:08;;;;;;;1.75;1.10;;;;;;;;;;5044786;28;20528;-81
2022/07/19 05:41:54;;;;;;;2.10;0.98;;;;;;;;;;5029916;28;20411;-81
2022/07/19 05:44:40;;;;;;;3.22;1.05;;;;;;;;;;5030157;28;20087;-80
2022/07/19 05:47:25;;;;;;;2.30;1.05;;;;;;;;;;5029920;28;20048;-81
2022/07/19 05:50:11;;;;;;;1.98;1.13;;;;;;;;;;5044499;28;20075;-81
2022/07/19 05:52:57;;;;;;;2.55;1.05;;;;;;;;;;5030984;28;20060;-80
2022/07/19 05:55:43;;;;;;;2.30;0.90;;;;;;;;;;5043353;28;20087;-81
2022/07/19 05:58:29;;;;;;;4.50;1.13;;;;;;;;;;5043655;28;20037;-81
2022/07/19 06:01:17;;;;;;;2.25;1.35;;;;;;;;;;5029734;28;20057;-81
2022/07/19 06:04:03;;;;;;;2.20;0.93;;;;;;;;;;5048342;28;20041;-81
2022/07/19 06:06:49;;;;;;;2.78;1.23;;;;;;;;;;5048380;28;20120;-81
2022/07/19 06:09:35;;;;;;;2.28;0.82;;;;;;;;;;5048244;28;20056;-81
2022/07/19 06:12:20;;;;;;;2.05;1.05;;;;;;;;;;5033120;28;20072;-81
2022/07/19 06:15:07;;;;;;;1.73;0.80;;;;;;;;;;5047339;28;20045;-81
2022/07/19 06:17:52;;;;;;;2.30;0.77;;;;;;;;;;5033044;28;20095;-81
2022/07/19 06:20:38;;;;;;;1.90;0.80;;;;;;;;;;5031620;28;20041;-81
2022/07/19 06:23:24;;;;;;;2.08;0.85;;;;;;;;;;5048174;28;20029;-81
2022/07/19 06:26:10;;;;;;;2.67;0.82;;;;;;;;;;5033019;28;20499;-80
2022/07/19 06:28:56;;;;;;;2.33;0.80;;;;;;;;;;5032085;28;20056;-81
2022/07/19 06:31:41;;;;;;;2.38;1.33;;;;;;;;;;5034019;28;20143;-81
2022/07/19 06:34:27;;;;;;;2.53;1.00;;;;;;;;;;5046299;28;20507;-81
2022/07/19 06:37:13;;;;;;;3.80;1.23;;;;;;;;;;5047978;28;20107;-81
2022/07/19 06:39:58;;;;;;;2.75;1.23;;;;;;;;;;5046527;28;20439;-80
2022/07/19 06:42:44;;;;;;;2.35;0.80;;;;;;;;;;5033328;28;20436;-81
2022/07/19 06:45:30;;;;;;;2.83;0.93;;;;;;;;;;5048469;28;20029;-81
2022/07/19 06:48:16;;;;;;;2.13;0.90;;;;;;;;;;5032234;28;20043;-81
2022/07/19 06:51:01;;;;;;;4.25;1.40;;;;;;;;;;5033915;28;20057;-80
2022/07/19 06:53:48;;;;;;;1.65;0.88;;;;;;;;;;5047574;28;20053;-81
2022/07/19 06:56:33;;;;;;;2.03;1.00;;;;;;;;;;5047489;28;20048;-81
2022/07/19 06:59:19;;;;;;;3.25;1.45;;;;;;;;;;5047310;28;20041;-81
2022/07/19 07:02:05;;;;;;;1.98;1.00;;;;;;;;;;5033547;28;20041;-81
2022/07/19 07:04:51;;;;;;;1.50;0.90;;;;;;;;;;5031216;28;20534;-81
2022/07/19 07:07:37;;;;;;;2.35;0.98;;;;;;;;;;5032939;28;20038;-81
2022/07/19 07:10:22;;;;;;;2.90;1.00;;;;;;;;;;5031020;28;20049;-81
2022/07/19 07:13:08;;;;;;;2.17;1.00;;;;;;;;;;5030694;28;20068;-81
2022/07/19 07:15:54;;;;;;;2.13;1.15;;;;;;;;;;5031927;28;20036;-81
2022/07/19 07:18:40;;;;;;;3.33;1.25;;;;;;;;;;5032937;28;20124;-81
2022/07/19 07:21:25;;;;;;;3.38;1.17;;;;;;;;;;5045129;28;20159;-81
2022/07/19 07:24:11;;;;;;;3.15;1.13;;;;;;;;;;5045544;28;20060;-81
2022/07/19 07:26:57;;;;;;;2.03;0.90;;;;;;;;;;5047057;28;20038;-81
2022/07/19 07:29:43;;;;;;;2.60;1.10;;;;;;;;;;5031784;28;20037;-81
2022/07/19 07:32:28;;;;;;;3.58;1.13;;;;;;;;;;5030770;28;20064;-81
2022/07/19 07:35:14;;;;;;;2.45;0.90;;;;;;;;;;5030111;28;20045;-81
2022/07/19 07:38:00;;;;;;;2.45;0.90;;;;;;;;;;5046730;28;20463;-81
2022/07/19 07:40:46;;;;;;;7.85;1.23;;;;;;;;;;5046485;28;20055;-81
2022/07/19 07:43:32;;;;;;;1.88;0.82;;;;;;;;;;5032743;28;20076;-81
2022/07/19 07:46:17;;;;;;;1.70;0.90;;;;;;;;;;5031129;28;20034;-81
2022/07/19 07:49:03;;;;;;;2.88;1.17;;;;;;;;;;5045159;28;20420;-81
2022/07/19 07:51:49;;;;;;;3.25;0.90;;;;;;;;;;5030096;28;20038;-81
2022/07/19 07:54:35;;;;;;;2.17;1.27;;;;;;;;;;5031462;28;20565;-81
2022/07/19 07:57:21;;;;;;;3.20;1.10;;;;;;;;;;5030321;28;20466;-81
2022/07/19 08:00:08;;;;;;;1.48;0.70;;;;;;;;;;5045681;28;20470;-81
2022/07/19 08:02:54;;;;;;;1.75;0.82;;;;;;;;;;5032969;28;20049;-81
2022/07/19 08:05:40;;;;;;;3.22;1.90;;;;;;;;;;5031144;28;20068;-81
2022/07/19 08:08:26;;;;;;;2.78;0.77;;;;;;;;;;5032335;28;20412;-81
2022/07/19 08:11:12;;;;;;;1.33;0.60;;;;;;;;;;5030421;28;20049;-81
2022/07/19 08:13:58;;;;;;;1.75;0.88;;;;;;;;;;5046113;28;20091;-81
2022/07/19 08:16:43;;;;;;;1.92;0.85;;;;;;;;;;5031584;28;20038;-81
2022/07/19 08:19:29;;;;;;;3.08;1.20;;;;;;;;;;5044504;28;20083;-81
2022/07/19 08:22:15;;;;;;;1.83;0.80;;;;;;;;;;5030190;28;20038;-81
2022/07/19 08:25:01;;;;;;;2.05;0.90;;;;;;;;;;5030578;28;20400;-81
2022/07/19 08:27:47;;;;;;;3.38;0.93;;;;;;;;;;5017578;28;20033;-81
2022/07/19 08:30:33;;;;;;;3.03;1.10;;;;;;;;;;5030403;28;20063;-81
2022/07/19 08:33:19;;;;;;;1.77;0.82;;;;;;;;;;5031325;28;20119;-81
2022/07/19 08:36:05;;;;;;;2.05;0.82;;;;;;;;;;5030922;28;20492;-81
2022/07/19 08:38:51;;;;;;;1.40;0.68;;;;;;;;;;5031552;28;20029;-81
2022/07/19 08:41:36;;;;;;;1.40;0.80;;;;;;;;;;5030689;28;20037;-81
2022/07/19 08:44:22;;;;;;;2.33;1.25;;;;;;;;;;5045322;28;20087;-81
2022/07/19 08:47:09;;;;;;;2.38;0.90;;;;;;;;;;5045845;28;20099;-81
2022/07/19 08:49:55;;;;;;;2.45;0.85;;;;;;;;;;5032217;28;20034;-81
2022/07/19 08:52:41;;;;;;;2.33;0.98;;;;;;;;;;5044975;28;20053;-81
2022/07/19 08:55:27;;;;;;;2.65;0.80;;;;;;;;;;5044620;28;20046;-81
2022/07/19 08:58:12;;;;;;;3.03;1.10;;;;;;;;;;5030321;28;20424;-82
2022/07/19 09:00:58;;;;;;;2.00;1.00;;;;;;;;;;5031415;28;20045;-81
2022/07/19 09:04:08;;;;;;;2.63;0.90;;;;;;;;;;5031626;28;20488;-82
2022/07/19 09:06:55;;;;;;;4.63;1.33;;;;;;;;;;5029275;28;20100;-81
2022/07/19 09:09:41;;;;;;;3.17;1.15;;;;;;;;;;5030338;28;20045;-81
2022/07/19 09:12:27;;;;;;;1.83;0.88;;;;;;;;;;5043830;28;20538;-81
2022/07/19 09:15:12;;;;;;;1.38;0.60;;;;;;;;;;5030942;28;20522;-81
2022/07/19 09:18:08;;;;;;;1.63;0.73;;;;;;;;;;5044058;28;20033;-81
2022/07/19 09:20:59;;;;;;;2.15;1.17;;;;;;;;;;5031830;28;20415;-81
2022/07/19 09:23:45;;;;;;;0.88;0.60;;;;;;;;;;5030323;28;20095;-82
2022/07/19 09:26:31;;;;;;;2.85;0.70;;;;;;;;;;5045177;28;20084;-81
2022/07/19 09:29:17;;;;;;;2.78;1.25;;;;;;;;;;5044999;28;20048;-82
2022/07/19 09:32:07;;;;;;;2.10;0.70;;;;;;;;;;5030238;28;20455;-81
2022/07/19 09:34:52;;;;;;;1.77;0.82;;;;;;;;;;5044004;28;20045;-82
2022/07/19 09:37:39;;;;;;;2.60;0.80;;;;;;;;;;5045916;28;20050;-82
2022/07/19 09:40:30;;;;;;;1.27;0.75;;;;;;;;;;5048711;28;20081;-81
2022/07/19 09:43:16;;;;;;;1.50;0.70;;;;;;;;;;5033495;28;20132;-82
2022/07/19 09:46:02;;;;;;;1.85;0.80;;;;;;;;;;5047222;28;20500;-82
2022/07/19 09:48:48;;;;;;;1.70;0.95;;;;;;;;;;5034988;28;20048;-82
2022/07/19 09:51:36;;;;;;;2.30;0.70;;;;;;;;;;5048596;28;20046;-82
2022/07/19 09:54:26;;;;;;;2.70;0.88;;;;;;;;;;5034747;28;20103;-82
2022/07/19 09:57:11;;;;;;;2.05;0.70;;;;;;;;;;5020287;28;20128;-82
2022/07/19 09:59:58;;;;;;;1.63;1.02;;;;;;;;;;5033240;28;20029;-82
2022/07/19 10:02:48;;;;;;;1.50;0.60;;;;;;;;;;5033539;28;20511;-82
2022/07/19 10:05:34;;;;;;;1.58;0.60;;;;;;;;;;5048384;28;20045;-82
2022/07/19 10:08:20;;;;;;;1.17;0.70;;;;;;;;;;5048573;28;20052;-82
2022/07/19 10:11:06;;;;;;;2.67;1.25;;;;;;;;;;5046897;28;20401;-82
2022/07/19 10:13:51;;;;;;;1.52;0.85;;;;;;;;;;5048005;28;20523;-81
2022/07/19 10:16:58;;;;;;;1.40;0.70;;;;;;;;;;5047165;28;20415;-81
2022/07/19 10:19:45;;;;;;;1.23;0.50;;;;;;;;;;5046930;28;20042;-81
2022/07/19 10:22:31;;;;;;;1.13;0.60;;;;;;;;;;5033213;28;20040;-81
2022/07/19 10:25:18;;;;;;;1.70;1.00;;;;;;;;;;5046669;28;20049;-82
2022/07/19 10:28:04;;;;;;;1.85;0.70;;;;;;;;;;5046101;28;20504;-81
2022/07/19 10:30:56;;;;;;;1.08;0.70;;;;;;;;;;5032623;28;20056;-81
2022/07/19 10:33:42;;;;;;;1.45;0.50;;;;;;;;;;5047521;28;20053;-81
2022/07/19 10:36:38;;;;;;;1.70;0.77;;;;;;;;;;5031544;28;20492;-82
2022/07/19 10:39:26;;;;;;;1.63;0.80;;;;;;;;;;5033222;28;20045;-81
2022/07/19 10:42:22;;;;;;;1.88;0.77;;;;;;;;;;5046366;28;20570;-81
2022/07/19 10:45:09;;;;;;;1.38;0.73;;;;;;;;;;5032894;28;20044;-81
2022/07/19 10:48:02;;;;;;;2.20;0.80;;;;;;;;;;5046281;28;20064;-81
2022/07/19 10:50:55;;;;;;;1.50;0.80;;;;;;;;;;5030923;28;20058;-82
2022/07/19 10:53:41;;;;;;;1.88;0.85;;;;;;;;;;5046453;28;20044;-82
2022/07/19 10:56:27;;;;;;;1.83;0.68;;;;;;;;;;5046192;28;20048;-81
2022/07/19 10:59:13;;;;;;;0.90;0.50;;;;;;;;;;5047289;28;20083;-82
2022/07/19 11:02:01;;;;;;;0.93;0.60;;;;;;;;;;5046374;28;20053;-82
2022/07/19 11:04:46;;;;;;;1.65;0.80;;;;;;;;;;5033108;28;20049;-81
2022/07/19 11:07:32;;;;;;;1.58;0.70;;;;;;;;;;5047355;28;20041;-81
2022/07/19 11:10:28;;;;;;;1.40;0.68;;;;;;;;;;5031057;28;20069;-81
2022/07/19 11:13:15;;;;;;;1.70;0.65;;;;;;;;;;5031829;28;20038;-82
2022/07/19 11:16:02;;;;;;;1.25;0.55;;;;;;;;;;5031959;28;20038;-81
2022/07/19 11:18:48;;;;;;;1.65;0.57;;;;;;;;;;5030647;28;20044;-82
2022/07/19 11:21:36;;;;;;;1.75;0.80;;;;;;;;;;5032222;28;20034;-82
2022/07/19 11:24:21;;;;;;;2.17;0.50;;;;;;;;;;5031578;28;20128;-81
2022/07/19 11:27:07;;;;;;;1.80;0.60;;;;;;;;;;5045738;28;20030;-82
2022/07/19 11:30:00;;;;;;;1.40;0.60;;;;;;;;;;5046644;28;20038;-82
2022/07/19 11:32:54;;;;;;;1.30;0.60;;;;;;;;;;5032546;28;20495;-81
2022/07/19 11:35:39;;;;;;;1.40;0.82;;;;;;;;;;5018173;28;20577;-81
2022/07/19 11:38:36;;;;;;;1.00;0.65;;;;;;;;;;5044724;28;20044;-81
2022/07/19 11:41:23;;;;;;;3.20;0.90;;;;;;;;;;5045475;28;20056;-81
2022/07/19 11:44:10;;;;;;;1.48;0.68;;;;;;;;;;5045408;28;20037;-82
2022/07/19 11:46:56;;;;;;;1.95;0.90;;;;;;;;;;5046449;28;20076;-81
2022/07/19 11:49:41;;;;;;;1.02;0.57;;;;;;;;;;5044667;28;20171;-81
2022/07/19 11:52:28;;;;;;;1.27;0.50;;;;;;;;;;5046943;28;20088;-82
2022/07/19 11:55:14;;;;;;;1.10;0.43;;;;;;;;;;5031562;28;20064;-82
2022/07/19 11:58:00;;;;;;;1.33;0.82;;;;;;;;;;5031293;28;20091;-82
2022/07/19 12:00:49;;;;;;;0.98;0.60;;;;;;;;;;5045467;28;20509;-82
2022/07/19 12:03:35;;;;;;;1.33;0.60;;;;;;;;;;5032252;28;20046;-82
2022/07/19 12:06:33;;;;;;;1.88;0.80;;;;;;;;;;5046167;28;20034;-82
2022/07/19 12:09:25;;;;;;;1.50;0.60;;;;;;;;;;5043806;28;20126;-82
2022/07/19 12:12:15;;;;;;;0.55;0.30;;;;;;;;;;5044360;28;20049;-81
2022/07/19 12:15:08;;;;;;;1.50;0.70;;;;;;;;;;5031218;28;20417;-81
2022/07/19 12:17:57;;;;;;;1.58;0.57;;;;;;;;;;5044757;28;20048;-82
2022/07/19 12:20:44;;;;;;;1.25;0.60;;;;;;;;;;5044867;28;20068;-81
2022/07/19 12:23:29;;;;;;;1.45;0.60;;;;;;;;;;5030525;28;20040;-82
2022/07/19 12:26:15;;;;;;;2.05;0.77;;;;;;;;;;5032162;28;20044;-82
2022/07/19 12:29:01;;;;;;;1.15;0.50;;;;;;;;;;5030201;28;20037;-81
2022/07/19 12:31:47;;;;;;;2.17;0.77;;;;;;;;;;5030764;28;20084;-82
2022/07/19 12:34:46;;;;;;;0.70;0.40;;;;;;;;;;5016918;28;20044;-82
2022/07/19 12:37:42;;;;;;;1.00;0.50;;;;;;;;;;5045707;28;20037;-82
2022/07/19 12:40:28;;;;;;;1.20;0.60;;;;;;;;;;5031180;28;20571;-82
2022/07/19 12:43:13;;;;;;;1.15;0.77;;;;;;;;;;5044030;28;20071;-82
2022/07/19 12:46:01;;;;;;;1.08;0.57;;;;;;;;;;5044973;28;20069;-82
2022/07/19 12:48:46;;;;;;;1.45;0.50;;;;;;;;;;5029617;28;20402;-82
2022/07/19 12:51:32;;;;;;;0.88;0.47;;;;;;;;;;5046057;28;20131;-82
2022/07/19 12:54:18;;;;;;;1.13;0.52;;;;;;;;;;5031263;28;20029;-82
2022/07/19 12:57:04;;;;;;;1.55;0.40;;;;;;;;;;5031175;28;20038;-82
2022/07/19 12:59:49;;;;;;;0.82;0.50;;;;;;;;;;5031384;28;20052;-82
2022/07/19 13:02:35;;;;;;;1.30;0.40;;;;;;;;;;5044215;28;20052;-82
2022/07/19 13:05:21;;;;;;;1.38;0.68;;;;;;;;;;5043488;28;20037;-82
2022/07/19 13:08:07;;;;;;;1.02;0.60;;;;;;;;;;5030128;28;20046;-82
2022/07/19 13:10:56;;;;;;;0.90;0.40;;;;;;;;;;5045341;28;20049;-82
2022/07/19 13:13:42;;;;;;;1.45;0.40;;;;;;;;;;5048058;28;20029;-82
2022/07/19 13:16:28;;;;;;;1.65;0.63;;;;;;;;;;5035536;28;20049;-82
2022/07/19 13:19:13;;;;;;;1.70;0.57;;;;;;;;;;5047609;28;20068;-82
2022/07/19 13:21:59;;;;;;;0.80;0.40;;;;;;;;;;5049430;28;20408;-82
2022/07/19 13:24:45;;;;;;;1.00;0.50;;;;;;;;;;5047018;28;20033;-81
2022/07/19 13:27:31;;;;;;;0.85;0.32;;;;;;;;;;5049395;28;20077;-82
2022/07/19 13:30:17;;;;;;;1.02;0.60;;;;;;;;;;5034455;28;20095;-82
2022/07/19 13:33:03;;;;;;;0.55;0.38;;;;;;;;;;5034009;28;20041;-82
2022/07/19 13:35:49;;;;;;;1.20;0.52;;;;;;;;;;5020091;28;20091;-82
2022/07/19 13:38:38;;;;;;;1.05;0.60;;;;;;;;;;5049037;28;20507;-83
2022/07/19 13:41:23;;;;;;;1.13;0.50;;;;;;;;;;5048488;28;20423;-82
2022/07/19 13:44:09;;;;;;;0.80;0.35;;;;;;;;;;5033234;28;20423;-81
2022/07/19 13:46:55;;;;;;;1.65;0.43;;;;;;;;;;5047095;28;20120;-81
2022/07/19 13:49:41;;;;;;;0.68;0.30;;;;;;;;;;5047299;28;20065;-81
2022/07/19 13:52:27;;;;;;;1.20;0.50;;;;;;;;;;5047760;28;20041;-82
2022/07/19 13:55:13;;;;;;;0.90;0.43;;;;;;;;;;5034959;28;20075;-82
2022/07/19 13:57:59;;;;;;;1.08;0.40;;;;;;;;;;5048610;28;20042;-82
2022/07/19 14:00:46;;;;;;;1.23;0.50;;;;;;;;;;5033415;28;20057;-82
2022/07/19 14:03:31;;;;;;;1.52;0.40;;;;;;;;;;5045613;28;20143;-82
2022/07/19 14:06:17;;;;;;;0.82;0.30;;;;;;;;;;5032354;28;20553;-82
2022/07/19 14:09:03;;;;;;;1.75;0.90;;;;;;;;;;5031476;28;20129;-82
2022/07/19 14:11:49;;;;;;;1.95;0.82;;;;;;;;;;5047013;28;20049;-81
2022/07/19 14:14:35;;;;;;;1.85;0.57;;;;;;;;;;5032405;28;20472;-82
2022/07/19 14:17:20;;;;;;;0.90;0.40;;;;;;;;;;5047868;28;20512;-82
2022/07/19 14:20:07;;;;;;;1.23;0.30;;;;;;;;;;5033643;28;20081;-81
2022/07/19 14:22:53;;;;;;;0.93;0.40;;;;;;;;;;5032685;28;20046;-82
2022/07/19 14:25:38;;;;;;;1.02;0.40;;;;;;;;;;5034344;28;20121;-81
2022/07/19 14:28:24;;;;;;;1.25;0.68;;;;;;;;;;5034342;28;20057;-81
2022/07/19 14:31:15;;;;;;;0.77;0.40;;;;;;;;;;5032581;28;20124;-81
2022/07/19 14:34:01;;;;;;;1.30;0.50;;;;;;;;;;5047394;28;20053;-81
2022/07/19 14:36:47;;;;;;;1.50;0.43;;;;;;;;;;5046784;28;20033;-82
2022/07/19 14:39:32;;;;;;;0.90;0.40;;;;;;;;;;5033431;28;20542;-82
2022/07/19 14:42:18;;;;;;;0.88;0.50;;;;;;;;;;5046400;28;20511;-82
2022/07/19 14:45:06;;;;;;;0.60;0.30;;;;;;;;;;5032798;28;20423;-82
2022/07/19 14:47:51;;;;;;;1.10;0.45;;;;;;;;;;5032469;28;20044;-82
2022/07/19 14:50:37;;;;;;;1.17;0.30;;;;;;;;;;5046523;28;20141;-81
2022/07/19 14:53:23;;;;;;;1.05;0.50;;;;;;;;;;5046323;28;20091;-81
2022/07/19 14:56:08;;;;;;;1.15;0.50;;;;;;;;;;5033131;28;20122;-82
2022/07/19 14:58:55;;;;;;;0.90;0.43;;;;;;;;;;5033243;28;20041;-82
2022/07/19 15:01:44;;;;;;;0.65;0.32;;;;;;;;;;5046133;28;20044;-82
2022/07/19 15:04:29;;;;;;;1.10;0.40;;;;;;;;;;5045249;28;20438;-82
2022/07/19 15:07:15;;;;;;;1.25;0.50;;;;;;;;;;5045577;28;20034;-81
2022/07/19 15:10:01;;;;;;;0.95;0.45;;;;;;;;;;5045971;28;20049;-82
2022/07/19 15:12:46;;;;;;;0.73;0.30;;;;;;;;;;5030993;28;20048;-81
2022/07/19 15:15:32;;;;;;;0.77;0.30;;;;;;;;;;5031272;28;20080;-82
2022/07/19 15:18:18;;;;;;;0.82;0.35;;;;;;;;;;5032596;28;20037;-81
2022/07/19 15:21:04;;;;;;;0.45;0.25;;;;;;;;;;5046956;28;20071;-82
2022/07/19 15:23:49;;;;;;;0.85;0.40;;;;;;;;;;5045447;28;20188;-82
2022/07/19 15:26:35;;;;;;;0.70;0.40;;;;;;;;;;5044578;28;20492;-82
2022/07/19 15:29:21;;;;;;;0.60;0.30;;;;;;;;;;5029883;28;20025;-81
2022/07/19 15:32:09;;;;;;;0.80;0.30;;;;;;;;;;5045744;28;20128;-82
2022/07/19 15:34:55;;;;;;;0.88;0.45;;;;;;;;;;5017819;28;20040;-81
2022/07/19 15:37:41;;;;;;;0.98;0.45;;;;;;;;;;5032918;28;20040;-81
2022/07/19 15:40:26;;;;;;;0.98;0.50;;;;;;;;;;5046496;28;20400;-82
2022/07/19 15:43:12;;;;;;;0.80;0.45;;;;;;;;;;5047176;28;20518;-81
2022/07/19 15:45:58;;;;;;;1.15;0.30;;;;;;;;;;5030327;28;20056;-81
2022/07/19 15:48:46;;;;;;;0.70;0.30;;;;;;;;;;5029998;28;20479;-82
2022/07/19 15:51:32;;;;;;;0.82;0.60;;;;;;;;;;5031513;28;20056;-81
2022/07/19 15:54:18;;;;;;;0.77;0.40;;;;;;;;;;5030323;28;20423;-81
2022/07/19 15:57:03;;;;;;;0.95;0.40;;;;;;;;;;5030286;28;20034;-81
2022/07/19 15:59:49;;;;;;;1.23;0.50;;;;;;;;;;5046237;28;20045;-81
2022/07/19 16:02:35;;;;;;;0.82;0.30;;;;;;;;;;5032390;28;20461;-82
2022/07/19 16:05:21;;;;;;;0.57;0.30;;;;;;;;;;5033093;28;20033;-81
2022/07/19 16:08:07;;;;;;;0.88;0.38;;;;;;;;;;5045632;28;20048;-81
2022/07/19 16:10:53;;;;;;;0.70;0.38;;;;;;;;;;5030934;28;20049;-81
2022/07/19 16:13:38;;;;;;;0.93;0.43;;;;;;;;;;5030544;28;20033;-81
2022/07/19 16:16:25;;;;;;;0.88;0.52;;;;;;;;;;5029912;28;20416;-82
2022/07/19 16:19:12;;;;;;;1.05;0.57;;;;;;;;;;5032158;28;20484;-81
2022/07/19 16:21:57;;;;;;;1.02;0.30;;;;;;;;;;5045103;28;20049;-82
2022/07/19 16:24:43;;;;;;;0.60;0.30;;;;;;;;;;5031070;28;20045;-80
2022/07/19 16:27:29;;;;;;;1.02;0.40;;;;;;;;;;5046002;28;20542;-81
2022/07/19 16:30:15;;;;;;;0.70;0.30;;;;;;;;;;5030471;28;20045;-82
2022/07/19 16:33:00;;;;;;;0.60;0.35;;;;;;;;;;5045045;28;20037;-81
2022/07/19 16:35:46;;;;;;;0.57;0.38;;;;;;;;;;5030317;28;20041;-82
2022/07/19 16:38:32;;;;;;;0.47;0.30;;;;;;;;;;5030561;28;20038;-82